This is the latest recevied weather packets stored in our database for station/object G0AMO. If no packets are shown the sender has not sent any weather packets the latest 10 day(s).
| Time | Temp. | Humidity | Pressure | Rain* | Wind** | Luminosity | Snow |
|---|---|---|---|---|---|---|---|
| 1777629604 | 21.11° C | 50% | 1020.7 hPa | 0 mm | - | 883 W/m² | - |
| 1777627204 | 18.89° C | 53% | 1020.7 hPa | 0 mm | - | 709 W/m² | - |
| 1777625404 | 17.22° C | 55% | 1020.7 hPa | 0 mm | - | 570 W/m² | - |
| 1777624804 | 17.22° C | 55% | 1021 hPa | 0 mm | - | 524 W/m² | - |
| 1777623904 | 17.78° C | 52% | 1021.2 hPa | 0 mm | - | 455 W/m² | - |
| 1777618804 | 14.44° C | 57% | 1020.7 hPa | 0 mm | - | 104 W/m² | - |
| 1777616404 | 13.33° C | 59% | 1021 hPa | 0 mm | - | 103 W/m² | - |
| 1777612204 | 9.44° C | 70% | 1019.6 hPa | 0 mm | - | 0 W/m² | - |
| 1777608006 | 10.56° C | 62% | 1019.3 hPa | 0 mm | - | 0 W/m² | - |
| 1777607105 | 10.56° C | 61% | 1019.3 hPa | 0 mm | - | 0 W/m² | - |
| 1777601104 | 11.11° C | 61% | 1020.7 hPa | 0 mm | - | 0 W/m² | - |
| 1777599905 | 10.56° C | 63% | 1020.7 hPa | 0 mm | - | 0 W/m² | - |
| 1777598404 | 11.11° C | 63% | 1020 hPa | 0 mm | - | 0 W/m² | - |
| 1777596904 | 10.56° C | 66% | 1021 hPa | 0 mm | - | 0 W/m² | - |
| 1777596604 | 11.11° C | 65% | 1021 hPa | 0 mm | - | 0 W/m² | - |
| 1777589705 | 12.22° C | 61% | 1020 hPa | 0 mm | - | 0 W/m² | - |
| 1777587304 | 12.78° C | 57% | 1020.3 hPa | 0 mm | - | 0 W/m² | - |
| 1777586705 | 13.33° C | 57% | 1021 hPa | 0 mm | - | 0 W/m² | - |
| 1777586104 | 13.33° C | 56% | 1020.3 hPa | 0 mm | - | 0 W/m² | - |
| 1777582504 | 13.89° C | 55% | 1020 hPa | 0 mm | - | 0 W/m² | - |
| 1777578905 | 16.67° C | 40% | 1020 hPa | 0 mm | - | 0 W/m² | - |
| 1777575604 | 18.33° C | 37% | 1020.7 hPa | 0 mm | - | 0 W/m² | - |
| 1777572904 | 19.44° C | 33% | 1020.3 hPa | 0 mm | - | 0 W/m² | - |
| 1777570505 | 20.56° C | 31% | 1020 hPa | 0 mm | - | 178 W/m² | - |
| 1777561504 | 22.22° C | 28% | 1019.3 hPa | 0 mm | - | 881 W/m² | - |
* Rain latest hour (hover to see other rain measurements)
** Current wind speed in m/s (hover to see current wind gust speed)